createdAt,value
2015-08-18T12:46:25.690Z,100779
2015-08-18T12:46:37.286Z,100770
2015-08-18T12:46:47.880Z,100773
2015-08-18T12:46:58.489Z,100773
2015-08-18T12:47:09.067Z,100785
2015-08-18T12:47:19.645Z,100776
2015-08-18T12:47:30.224Z,100788
2015-08-18T12:47:40.898Z,100773
2015-08-18T12:47:51.461Z,100779
2015-08-18T12:48:02.117Z,100782
2015-08-18T12:48:12.727Z,100779
2015-08-18T12:48:23.398Z,100785
2015-08-18T12:48:33.992Z,100773
2015-08-18T12:48:44.494Z,100776
2015-08-18T12:48:55.697Z,100779
2015-08-18T12:49:06.260Z,100776
2015-08-18T12:49:16.822Z,100785
2015-08-18T12:49:27.463Z,100773
2015-08-18T12:49:38.012Z,100785
2015-08-18T12:49:48.559Z,100785
2015-08-18T12:49:59.184Z,100782
2015-08-18T12:50:09.777Z,100788
2015-08-18T12:50:20.356Z,100779
2015-08-18T12:50:30.856Z,100776
2015-08-18T12:50:41.498Z,100776
2015-08-18T12:50:52.108Z,100779
2015-08-18T12:51:03.279Z,100785
2015-08-18T12:51:13.717Z,100788
2015-08-18T12:51:24.186Z,100779
2015-08-18T12:51:34.639Z,100770
2015-08-18T12:51:45.109Z,100785
2015-08-18T12:51:55.562Z,100788
2015-08-18T12:52:06.030Z,100779
2015-08-18T12:52:16.530Z,100773
2015-08-18T12:52:27.124Z,100776
2015-08-18T12:52:37.736Z,100779
2015-08-18T12:52:48.204Z,100773
2015-08-18T12:52:58.673Z,100779
2015-08-18T12:53:09.157Z,100779
2015-08-18T12:53:19.657Z,100779
2015-08-18T12:53:30.173Z,100782
2015-08-18T12:53:40.847Z,100782
2015-08-18T12:53:51.300Z,100788
2015-08-18T12:54:02.097Z,100785
2015-08-18T12:54:12.706Z,100782
2015-08-18T12:54:23.206Z,100776
2015-08-18T12:54:33.800Z,100776
2015-08-18T12:54:44.724Z,100776
2015-08-18T12:54:55.208Z,100776
2015-08-18T12:55:05.724Z,100779
2015-08-18T12:55:16.255Z,100776
2015-08-18T12:55:26.833Z,100782
2015-08-18T12:55:37.960Z,100779
2015-08-18T12:55:48.445Z,100779
2015-08-18T12:55:58.929Z,100785
2015-08-18T12:56:09.429Z,100785
2015-08-18T12:56:19.898Z,100779
2015-08-18T12:56:30.382Z,100788
2015-08-18T12:56:40.837Z,100785
2015-08-18T12:56:51.290Z,100776
2015-08-18T12:57:01.759Z,100779
2015-08-18T12:57:12.244Z,100796
2015-08-18T12:57:22.712Z,100779
2015-08-18T12:57:33.181Z,100785
2015-08-18T12:57:43.667Z,100788
2015-08-18T12:57:54.136Z,100788
2015-08-18T12:58:04.683Z,100788
2015-08-18T12:58:15.167Z,100785
2015-08-18T12:58:25.636Z,100794
2015-08-18T12:58:36.496Z,100788
2015-08-18T12:58:47.029Z,100782
2015-08-18T12:58:57.529Z,100788
2015-08-18T12:59:08.076Z,100785
2015-08-18T12:59:18.607Z,100785
2015-08-18T12:59:29.138Z,100785
2015-08-18T12:59:39.640Z,100788
2015-08-18T12:59:50.734Z,100788
2015-08-18T13:00:01.328Z,100779
2015-08-18T13:00:11.796Z,100791
2015-08-18T13:00:22.281Z,100794
2015-08-18T13:00:32.812Z,100794
2015-08-18T13:00:44.095Z,100791
2015-08-18T13:00:54.564Z,100782
2015-08-18T13:01:05.158Z,100798
2015-08-18T13:01:15.642Z,100796
2015-08-18T13:01:26.173Z,100796
2015-08-18T13:01:36.642Z,100791
2015-08-18T13:01:47.113Z,100797
2015-08-18T13:01:57.629Z,100794
2015-08-18T13:02:08.082Z,100791
2015-08-18T13:02:19.207Z,100798
2015-08-18T13:02:29.629Z,100794
2015-08-18T13:02:40.192Z,100794
2015-08-18T13:02:50.739Z,100794
2015-08-18T13:03:01.301Z,100798
2015-08-18T13:03:11.801Z,100785
2015-08-18T13:03:23.067Z,100794
2015-08-18T13:03:33.583Z,100797
2015-08-18T13:03:44.711Z,100797
2015-08-18T13:03:55.226Z,100798
2015-08-18T13:04:05.711Z,100794
2015-08-18T13:04:16.211Z,100798
2015-08-18T13:04:26.695Z,100798
2015-08-18T13:04:37.179Z,100798
2015-08-18T13:04:47.650Z,100791
2015-08-18T13:04:58.103Z,100796
2015-08-18T13:05:08.556Z,100796
2015-08-18T13:05:19.025Z,100798
2015-08-18T13:05:29.494Z,100804
2015-08-18T13:05:39.979Z,100804
2015-08-18T13:05:50.432Z,100798
2015-08-18T13:06:00.886Z,100804
2015-08-18T13:06:11.417Z,100804
2015-08-18T13:06:21.886Z,100798
2015-08-18T13:06:32.386Z,100798
2015-08-18T13:06:42.842Z,100796
2015-08-18T13:06:53.310Z,100798
2015-08-18T13:07:03.795Z,100796
2015-08-18T13:07:14.342Z,100801
2015-08-18T13:07:24.857Z,100798
2015-08-18T13:07:35.389Z,100801
2015-08-18T13:07:45.874Z,100798
2015-08-18T13:07:56.358Z,100798
2015-08-18T13:08:06.827Z,100796
2015-08-18T13:08:17.296Z,100804
2015-08-18T13:08:27.765Z,100798
2015-08-18T13:08:38.249Z,100798
2015-08-18T13:08:48.688Z,100798
2015-08-18T13:08:59.157Z,100801
2015-08-18T13:09:09.985Z,100796
2015-08-18T13:09:20.438Z,100785
2015-08-18T13:09:30.954Z,100801
2015-08-18T13:09:41.972Z,100796
2015-08-18T13:09:52.409Z,100794
2015-08-18T13:10:03.003Z,100794
2015-08-18T13:10:13.503Z,100801
2015-08-18T13:10:24.003Z,100798
2015-08-18T13:10:34.456Z,100796
2015-08-18T13:10:44.942Z,100796
2015-08-18T13:10:55.396Z,100804
2015-08-18T13:11:05.880Z,100804
2015-08-18T13:11:16.364Z,100801
2015-08-18T13:11:26.817Z,100804
2015-08-18T13:11:37.333Z,100804
2015-08-18T13:11:47.819Z,100801
2015-08-18T13:11:58.319Z,100798
2015-08-18T13:12:08.819Z,100807
2015-08-18T13:12:19.398Z,100804
2015-08-18T13:12:29.929Z,100807
2015-08-18T13:12:40.429Z,100804
2015-08-18T13:12:50.899Z,100801
2015-08-18T13:13:01.336Z,100801
2015-08-18T13:13:11.820Z,100804
2015-08-18T13:13:22.305Z,100798
2015-08-18T13:13:32.820Z,100810
2015-08-18T13:13:43.308Z,100798
2015-08-18T13:13:53.777Z,100804
2015-08-18T13:14:04.245Z,100807
2015-08-18T13:14:14.714Z,100810
2015-08-18T13:14:25.183Z,100810
2015-08-18T13:14:36.120Z,100810
2015-08-18T13:14:46.638Z,100804
2015-08-18T13:14:57.107Z,100813
2015-08-18T13:15:07.607Z,100810
2015-08-18T13:15:18.107Z,100807
2015-08-18T13:15:28.591Z,100807
2015-08-18T13:15:39.060Z,100810
2015-08-18T13:15:49.562Z,100810
2015-08-18T13:16:00.062Z,100801
2015-08-18T13:16:10.577Z,100807
2015-08-18T13:16:21.109Z,100807
2015-08-18T13:17:24.064Z,100813
2015-08-18T13:17:34.642Z,100810
2015-08-18T13:17:45.111Z,100810
2015-08-18T13:17:55.581Z,100810
2015-08-18T13:18:06.050Z,100813
2015-08-18T13:18:16.535Z,100807
2015-08-18T13:18:27.519Z,100804
2015-08-18T13:18:38.003Z,100810
2015-08-18T13:18:48.458Z,100804
2015-08-18T13:18:58.927Z,100810
2015-08-18T13:19:09.412Z,100819
2015-08-18T13:19:19.912Z,100813
2015-08-18T13:19:30.412Z,100807
2015-08-18T13:19:40.849Z,100804
2015-08-18T13:19:51.334Z,100816
2015-08-18T13:20:01.850Z,100822
2015-08-18T13:20:12.319Z,100813
2015-08-18T13:20:22.741Z,100816
2015-08-18T13:20:33.850Z,100819
2015-08-18T13:20:44.350Z,100810
2015-08-18T13:20:54.836Z,100810
2015-08-18T13:21:05.336Z,100810
2015-08-18T13:21:15.821Z,100807
2015-08-18T13:21:26.305Z,100822
2015-08-18T13:21:36.774Z,100816
2015-08-18T13:21:47.213Z,100807
2015-08-18T13:21:57.682Z,100819
2015-08-18T13:22:08.885Z,100813
2015-08-18T13:22:19.417Z,100807
2015-08-18T13:22:29.901Z,100805
2015-08-18T13:22:40.354Z,100816
2015-08-18T13:22:50.825Z,100819
2015-08-18T13:23:01.325Z,100807
2015-08-18T13:23:11.778Z,100810
2015-08-18T13:23:22.262Z,100813
2015-08-18T13:23:32.731Z,100822
2015-08-18T13:23:43.215Z,100810
2015-08-18T13:23:53.687Z,100805
2015-08-18T13:24:04.156Z,100816
2015-08-18T13:24:14.625Z,100819
2015-08-18T13:24:25.156Z,100813
2015-08-18T13:24:36.703Z,100813
2015-08-18T13:24:47.204Z,100813
2015-08-18T13:24:57.782Z,100822
2015-08-18T13:25:08.329Z,100822
2015-08-18T13:25:19.469Z,100816
2015-08-18T13:25:29.985Z,100816
2015-08-18T13:25:40.454Z,100813
2015-08-18T13:25:50.909Z,100822
2015-08-18T13:26:01.378Z,100819
2015-08-18T13:26:11.846Z,100816
2015-08-18T13:26:22.315Z,100813
2015-08-18T13:26:32.768Z,100822
2015-08-18T13:26:43.237Z,100816
2015-08-18T13:26:53.708Z,100825
2015-08-18T13:27:04.192Z,100819
2015-08-18T13:27:14.661Z,100819
2015-08-18T13:27:25.145Z,100819
2015-08-18T13:27:35.677Z,100816
2015-08-18T13:27:46.161Z,100813
2015-08-18T13:27:56.646Z,100831
2015-08-18T13:28:07.146Z,100822
2015-08-18T13:28:17.631Z,100828
2015-08-18T13:28:28.115Z,100819
2015-08-18T13:28:38.615Z,100819
2015-08-18T13:28:49.118Z,100819
2015-08-18T13:28:59.618Z,100822
2015-08-18T13:29:10.071Z,100816
2015-08-18T13:29:20.602Z,100828
2015-08-18T13:29:31.149Z,100825
2015-08-18T13:29:42.259Z,100813
2015-08-18T13:29:53.400Z,100831
2015-08-18T13:30:03.869Z,100831
2015-08-18T13:30:14.338Z,100822
2015-08-18T13:30:24.885Z,100828
2015-08-18T13:30:35.916Z,100831
2015-08-18T13:30:46.385Z,100816
2015-08-18T13:30:56.856Z,100831
2015-08-18T13:31:07.325Z,100819
2015-08-18T13:31:17.872Z,100828
2015-08-18T13:31:28.356Z,100831
2015-08-18T13:31:38.810Z,100813
2015-08-18T13:31:49.295Z,100822
2015-08-18T13:31:59.748Z,100822
2015-08-18T13:32:10.201Z,100828
2015-08-18T13:32:21.154Z,100819
2015-08-18T13:32:31.732Z,100825
2015-08-18T13:32:42.186Z,100831
2015-08-18T13:32:52.688Z,100825
2015-08-18T13:33:03.172Z,100831
2015-08-18T13:33:13.672Z,100834
2015-08-18T13:33:24.109Z,100819
2015-08-18T13:33:34.594Z,100822
2015-08-18T13:33:44.984Z,100819
2015-08-18T13:33:55.425Z,100831
2015-08-18T13:34:05.925Z,100825
2015-08-18T13:34:16.425Z,100822
2015-08-18T13:34:27.472Z,100825
2015-08-18T13:34:37.956Z,100816
2015-08-18T13:34:48.425Z,100819
2015-08-18T13:34:58.926Z,100819
2015-08-18T13:35:09.395Z,100819
2015-08-18T13:35:19.879Z,100822
2015-08-18T13:35:30.348Z,100819
2015-08-18T13:35:40.879Z,100819
2015-08-18T13:35:51.365Z,100825
2015-08-18T13:36:01.834Z,100834
2015-08-18T13:36:12.303Z,100825
2015-08-18T13:36:22.756Z,100828
2015-08-18T13:36:33.397Z,100825
2015-08-18T13:36:43.865Z,100825
2015-08-18T13:36:54.478Z,100831
2015-08-18T13:37:04.993Z,100836
2015-08-18T13:37:15.447Z,100825
2015-08-18T13:37:25.931Z,100828
2015-08-18T13:37:36.447Z,100825
2015-08-18T13:37:46.962Z,100828
2015-08-18T13:37:57.463Z,100828
2015-08-18T13:38:07.994Z,100816
2015-08-18T13:38:19.088Z,100825
2015-08-18T13:38:29.604Z,100819
2015-08-18T13:38:40.073Z,100825
2015-08-18T13:38:50.653Z,100819
2015-08-18T13:39:01.121Z,100828
2015-08-18T13:39:11.575Z,100833
2015-08-18T13:39:22.043Z,100831
2015-08-18T13:39:32.481Z,100825
2015-08-18T13:39:42.950Z,100825
2015-08-18T13:39:53.405Z,100825
2015-08-18T13:40:03.889Z,100828
2015-08-18T13:40:14.389Z,100825
2015-08-18T13:40:24.873Z,100825
2015-08-18T13:40:35.733Z,100822
2015-08-18T13:40:46.217Z,100836
2015-08-18T13:40:56.657Z,100825
2015-08-18T13:41:07.125Z,100825
2015-08-18T13:41:17.610Z,100831
2015-08-18T13:41:28.141Z,100836
2015-08-18T13:41:38.625Z,100828
2015-08-18T13:41:49.125Z,100831
2015-08-18T13:41:59.643Z,100834
2015-08-18T13:42:10.065Z,100836
2015-08-18T13:42:20.596Z,100831
2015-08-18T13:42:31.081Z,100844
2015-08-18T13:42:41.534Z,100831
2015-08-18T13:42:52.018Z,100831
2015-08-18T13:43:02.489Z,100831
2015-08-18T13:43:12.973Z,100831
2015-08-18T13:43:23.473Z,100837
2015-08-18T13:43:34.426Z,100837
2015-08-18T13:43:44.879Z,100837
2015-08-18T13:43:55.350Z,100839
2015-08-18T13:44:05.819Z,100831
2015-08-18T13:44:16.350Z,100844
2015-08-18T13:44:27.038Z,100839
2015-08-18T13:44:37.491Z,100834
2015-08-18T13:44:47.960Z,100844
2015-08-18T13:44:58.414Z,100837
2015-08-18T13:45:08.914Z,100844
2015-08-18T13:45:19.445Z,100839
2015-08-18T13:45:30.461Z,100839
2015-08-18T13:45:40.976Z,100839
2015-08-18T13:45:51.461Z,100834
2015-08-18T13:46:01.948Z,100839
2015-08-18T13:46:12.526Z,100837
2015-08-18T13:46:23.026Z,100844
2015-08-18T13:46:34.073Z,100837
2015-08-18T13:46:45.198Z,100831
2015-08-18T13:46:55.684Z,100837
2015-08-18T13:47:06.122Z,100844
2015-08-18T13:47:16.622Z,100844
2015-08-18T13:47:27.091Z,100837
2015-08-18T13:47:37.544Z,100844
2015-08-18T13:47:47.997Z,100837
2015-08-18T13:47:58.452Z,100839
2015-08-18T13:48:08.921Z,100831
2015-08-18T13:48:19.374Z,100828
2015-08-18T13:48:29.811Z,100828
2015-08-18T13:48:40.280Z,100844
2015-08-18T13:48:50.749Z,100828
2015-08-18T13:49:01.234Z,100837
2015-08-18T13:49:11.703Z,100834
2015-08-18T13:49:22.140Z,100834
2015-08-18T13:49:32.609Z,100843
2015-08-18T13:49:43.078Z,100831
2015-08-18T13:49:53.531Z,100837
2015-08-18T13:50:04.033Z,100834
2015-08-18T13:50:14.580Z,100837
2015-08-18T13:50:25.080Z,100837
2015-08-18T13:50:36.283Z,100843
2015-08-18T13:50:46.736Z,100843
2015-08-18T13:50:57.238Z,100837
2015-08-18T13:51:07.691Z,100828
2015-08-18T13:51:18.160Z,100831
2015-08-18T13:51:28.644Z,100834
2015-08-18T13:51:39.144Z,100848
2015-08-18T13:51:49.738Z,100843
2015-08-18T13:52:00.226Z,100845
2015-08-18T13:52:10.694Z,100845
2015-08-18T13:52:21.147Z,100834
2015-08-18T13:52:31.710Z,100831
2015-08-18T13:52:42.179Z,100837
2015-08-18T13:52:52.694Z,100834
2015-08-18T13:53:03.195Z,100848
2015-08-18T13:53:13.648Z,100837
2015-08-18T13:53:24.102Z,100837
2015-08-18T13:53:34.570Z,100848
2015-08-18T13:53:45.008Z,100837
2015-08-18T13:53:55.414Z,100845
2015-08-18T13:54:05.900Z,100834
2015-08-18T13:54:16.400Z,100845
2015-08-18T13:54:26.979Z,100845
2015-08-18T13:54:37.463Z,100843
2015-08-18T13:54:47.963Z,100845
2015-08-18T13:54:58.652Z,100834
2015-08-18T13:55:09.090Z,100845
2015-08-18T13:55:20.168Z,100850
2015-08-18T13:55:30.637Z,100848
2015-08-18T13:55:41.106Z,100845
2015-08-18T13:55:57.983Z,100837
2015-08-18T13:56:08.483Z,100845
2015-08-18T13:56:18.983Z,100834
2015-08-18T13:56:29.514Z,100834
2015-08-18T13:56:39.983Z,100845
2015-08-18T13:56:50.420Z,100845
2015-08-18T13:57:00.890Z,100843
2015-08-18T13:57:11.343Z,100856
2015-08-18T13:57:21.812Z,100837
2015-08-18T13:57:32.249Z,100845
2015-08-18T13:57:42.734Z,100843
2015-08-18T13:57:53.312Z,100843
2015-08-18T13:58:03.768Z,100843
2015-08-18T13:58:14.908Z,100847
2015-08-18T13:58:25.424Z,100845
2015-08-18T13:58:35.924Z,100850
2015-08-18T13:58:46.408Z,100837
2015-08-18T13:58:56.924Z,100834
2015-08-18T13:59:07.457Z,100843
2015-08-18T13:59:17.957Z,100847
2015-08-18T13:59:28.426Z,100853
2015-08-18T13:59:38.864Z,100844
2015-08-18T13:59:49.317Z,100847
2015-08-18T13:59:59.787Z,100853
2015-08-18T14:00:10.256Z,100847
2015-08-18T14:00:20.741Z,100843
2015-08-18T14:00:31.303Z,100847
2015-08-18T14:00:41.803Z,100844
2015-08-18T14:00:52.319Z,100837
2015-08-18T14:01:02.789Z,100850
2015-08-18T14:01:13.258Z,100850
2015-08-18T14:01:23.727Z,100847
2015-08-18T14:01:34.211Z,100844
2015-08-18T14:01:44.664Z,100837
2015-08-18T14:01:55.164Z,100843
2015-08-18T14:02:05.635Z,100844
2015-08-18T14:02:16.104Z,100850
2015-08-18T14:02:26.573Z,100844
2015-08-18T14:02:37.057Z,100847
2015-08-18T14:02:47.541Z,100856
2015-08-18T14:02:58.651Z,100847
2015-08-18T14:03:09.105Z,100862
2015-08-18T14:03:19.558Z,100850
2015-08-18T14:03:29.996Z,100853
2015-08-18T14:03:40.480Z,100853
2015-08-18T14:03:50.933Z,100853
2015-08-18T14:04:01.374Z,100847
2015-08-18T14:04:11.842Z,100856
2015-08-18T14:04:22.342Z,100844
2015-08-18T14:04:32.780Z,100844
2015-08-18T14:04:43.233Z,100850
2015-08-18T14:04:53.702Z,100856
2015-08-18T14:05:04.156Z,100844
2015-08-18T14:05:14.625Z,100859
2015-08-18T14:05:25.062Z,100862
2015-08-18T14:05:35.546Z,100850
2015-08-18T14:05:46.000Z,100859
2015-08-18T14:05:56.468Z,100862
2015-08-18T14:06:06.939Z,100856
2015-08-18T14:06:17.439Z,100862
2015-08-18T14:06:27.908Z,100859
2015-08-18T14:06:38.439Z,100856
2015-08-18T14:06:48.892Z,100856
2015-08-18T14:06:59.392Z,100862
2015-08-18T14:07:09.816Z,100850
2015-08-18T14:07:20.316Z,100859
2015-08-18T14:07:30.863Z,100865
2015-08-18T14:07:41.332Z,100867
2015-08-18T14:07:51.816Z,100853
2015-08-18T14:08:02.285Z,100859
2015-08-18T14:08:12.771Z,100859
2015-08-18T14:08:23.912Z,100859
2015-08-18T14:08:34.365Z,100856
2015-08-18T14:08:44.818Z,100853
2015-08-18T14:08:55.287Z,100856
2015-08-18T14:09:05.742Z,100853
2015-08-18T14:09:16.226Z,100856
2015-08-18T14:09:26.789Z,100856
2015-08-18T14:09:37.242Z,100862
2015-08-18T14:09:47.695Z,100859
2015-08-18T14:09:58.539Z,100856
2015-08-18T14:10:09.010Z,100856
2015-08-18T14:10:19.478Z,100862
2015-08-18T14:10:29.963Z,100859
2015-08-18T14:10:40.400Z,100853
2015-08-18T14:10:50.885Z,100853
2015-08-18T14:11:01.353Z,100853
2015-08-18T14:11:11.824Z,100859
2015-08-18T14:11:22.262Z,100865
2015-08-18T14:11:32.746Z,100859
2015-08-18T14:11:43.230Z,100865
2015-08-18T14:11:53.715Z,100850
2015-08-18T14:12:04.199Z,100867
2015-08-18T14:12:14.670Z,100865
2015-08-18T14:12:25.795Z,100850
2015-08-18T14:12:36.248Z,100862
2015-08-18T14:12:46.654Z,100862
2015-08-18T14:12:57.092Z,100859
2015-08-18T14:13:07.560Z,100853
2015-08-18T14:13:18.000Z,100865
2015-08-18T14:13:28.453Z,100865
2015-08-18T14:13:38.891Z,100865
2015-08-18T14:13:49.344Z,100850
2015-08-18T14:13:59.859Z,100856
2015-08-18T14:14:10.314Z,100862
2015-08-18T14:14:20.783Z,100850
2015-08-18T14:14:31.955Z,100859
2015-08-18T14:14:42.502Z,100859
2015-08-18T14:14:52.939Z,100865
2015-08-18T14:15:03.455Z,100865
2015-08-18T14:15:13.910Z,100865
2015-08-18T14:15:24.379Z,100856
2015-08-18T14:15:34.832Z,100859
2015-08-18T14:15:45.254Z,100862
2015-08-18T14:15:55.738Z,100865
2015-08-18T14:16:06.223Z,100865
2015-08-18T14:16:16.725Z,100859
2015-08-18T14:16:27.240Z,100859
2015-08-18T14:16:37.678Z,100862
2015-08-18T14:16:48.162Z,100859
2015-08-18T14:16:59.147Z,100865
2015-08-18T14:17:09.631Z,100859
2015-08-18T14:17:20.085Z,100853
2015-08-18T14:17:30.710Z,100865
2015-08-18T14:17:41.148Z,100859
2015-08-18T14:17:51.632Z,100859
2015-08-18T14:18:02.069Z,100862
2015-08-18T14:18:12.509Z,100873
2015-08-18T14:18:22.978Z,100868
2015-08-18T14:18:33.571Z,100868
2015-08-18T14:18:44.025Z,100862
2015-08-18T14:18:54.540Z,100865
2015-08-18T14:19:04.978Z,100868
2015-08-18T14:19:15.433Z,100868
2015-08-18T14:19:25.886Z,100865
2015-08-18T14:19:36.323Z,100865
2015-08-18T14:19:46.839Z,100856
2015-08-18T14:19:57.323Z,100868
2015-08-18T14:20:07.792Z,100859
2015-08-18T14:20:18.185Z,100862
2015-08-18T14:20:29.169Z,100876
2015-08-18T14:20:39.669Z,100862
2015-08-18T14:20:50.779Z,100859
2015-08-18T14:21:01.216Z,100870
2015-08-18T14:21:11.654Z,100853
2015-08-18T14:21:22.124Z,100859
2015-08-18T14:21:32.593Z,100868
2015-08-18T14:21:43.015Z,100859
2015-08-18T14:21:53.468Z,100862
2015-08-18T14:22:03.921Z,100853
2015-08-18T14:22:14.330Z,100856
2015-08-18T14:22:24.784Z,100870
2015-08-18T14:22:35.315Z,100868
2015-08-18T14:22:45.768Z,100859
2015-08-18T14:22:56.205Z,100870
2015-08-18T14:23:06.659Z,100868
2015-08-18T14:23:17.097Z,100865
2015-08-18T14:23:27.550Z,100856
2015-08-18T14:23:37.988Z,100859
2015-08-18T14:23:48.456Z,100865
2015-08-18T14:23:58.925Z,100868
2015-08-18T14:24:09.472Z,100862
2015-08-18T14:24:20.005Z,100859
2015-08-18T14:24:30.505Z,100868
2015-08-18T14:24:40.927Z,100865
2015-08-18T14:24:51.333Z,100859
2015-08-18T14:25:01.802Z,100870
2015-08-18T14:25:12.271Z,100865
2015-08-18T14:25:22.742Z,100865
2015-08-18T14:25:33.195Z,100870
2015-08-18T14:25:43.648Z,100868
2015-08-18T14:25:54.101Z,100876
2015-08-18T14:26:04.570Z,100868
2015-08-18T14:26:15.007Z,100868
2015-08-18T14:26:25.478Z,100870
2015-08-18T14:26:35.931Z,100859
2015-08-18T14:26:46.431Z,100876
2015-08-18T14:26:56.884Z,100862
2015-08-18T14:27:07.337Z,100876
2015-08-18T14:27:17.824Z,100871
2015-08-18T14:27:28.277Z,100873
2015-08-18T14:27:38.730Z,100870
2015-08-18T14:27:49.183Z,100868
2015-08-18T14:27:59.652Z,100868
2015-08-18T14:28:10.105Z,100873
2015-08-18T14:28:20.560Z,100868
2015-08-18T14:28:31.810Z,100870
2015-08-18T14:28:42.326Z,100870
2015-08-18T14:28:52.841Z,100862
2015-08-18T14:29:03.279Z,100868
2015-08-18T14:29:13.810Z,100862
2015-08-18T14:29:24.281Z,100868
2015-08-18T14:29:34.750Z,100871
2015-08-18T14:29:45.218Z,100876
2015-08-18T14:29:55.672Z,100876
2015-08-18T14:30:06.125Z,100859
2015-08-18T14:30:16.593Z,100873
2015-08-18T14:30:27.939Z,100868
2015-08-18T14:30:38.408Z,100873
2015-08-18T14:30:48.845Z,100873
2015-08-18T14:30:59.299Z,100862
2015-08-18T14:31:09.752Z,100871
2015-08-18T14:31:20.238Z,100871
2015-08-18T14:31:30.832Z,100876
2015-08-18T14:31:41.332Z,100876
2015-08-18T14:31:51.863Z,100876
2015-08-18T14:32:02.301Z,100868
2015-08-18T14:32:12.801Z,100873
2015-08-18T14:32:23.240Z,100876
2015-08-18T14:32:34.224Z,100876
2015-08-18T14:32:44.724Z,100879
2015-08-18T14:32:55.224Z,100882
2015-08-18T14:33:05.724Z,100873
2015-08-18T14:33:16.209Z,100873
2015-08-18T14:33:26.711Z,100868
2015-08-18T14:33:37.180Z,100873
2015-08-18T14:33:47.680Z,100873
2015-08-18T14:33:58.133Z,100879
2015-08-18T14:34:09.148Z,100879
2015-08-18T14:34:19.603Z,100868
2015-08-18T14:34:30.088Z,100874
2015-08-18T14:34:40.541Z,100876
2015-08-18T14:34:51.025Z,100885
2015-08-18T14:35:01.478Z,100876
2015-08-18T14:35:11.947Z,100874
2015-08-18T14:35:22.386Z,100874
2015-08-18T14:35:32.839Z,100879
2015-08-18T14:35:43.308Z,100879
2015-08-18T14:35:53.761Z,100874
2015-08-18T14:36:04.245Z,100871
2015-08-18T14:36:14.745Z,100879
2015-08-18T14:36:25.200Z,100874
2015-08-18T14:36:35.731Z,100874
2015-08-18T14:36:46.231Z,100876
2015-08-18T14:36:56.716Z,100876
2015-08-18T14:37:07.169Z,100874
2015-08-18T14:37:17.560Z,100879
2015-08-18T14:37:28.030Z,100871
2015-08-18T14:37:38.796Z,100871
2015-08-18T14:37:49.249Z,100876
2015-08-18T14:37:59.702Z,100876
2015-08-18T14:38:10.155Z,100874
2015-08-18T14:38:20.593Z,100868
2015-08-18T14:38:31.610Z,100874
2015-08-18T14:38:42.079Z,100879
2015-08-18T14:38:52.626Z,100874
2015-08-18T14:39:03.142Z,100871
2015-08-18T14:39:13.610Z,100874
2015-08-18T14:39:24.051Z,100876
2015-08-18T14:39:34.535Z,100882
2015-08-18T14:39:45.020Z,100876
2015-08-18T14:39:55.473Z,100879
2015-08-18T14:40:05.942Z,100879
2015-08-18T14:40:16.395Z,100874
2015-08-18T14:40:27.489Z,100871
2015-08-18T14:40:37.927Z,100876
2015-08-18T14:40:48.411Z,100873
2015-08-18T14:40:59.568Z,100879
2015-08-18T14:41:10.083Z,100882
2015-08-18T14:41:21.208Z,100876
2015-08-18T14:41:31.663Z,100876
2015-08-18T14:41:42.116Z,100873
2015-08-18T14:41:52.585Z,100882
2015-08-18T14:42:03.023Z,100873
2015-08-18T14:42:13.491Z,100873
2015-08-18T14:42:23.947Z,100873
2015-08-18T14:42:34.400Z,100876
2015-08-18T14:42:44.931Z,100876
2015-08-18T14:42:55.353Z,100879
2015-08-18T14:43:05.822Z,100885
2015-08-18T14:43:16.290Z,100885
2015-08-18T14:43:26.824Z,100876
2015-08-18T14:43:37.339Z,100888
2015-08-18T14:43:47.777Z,100876
2015-08-18T14:43:58.261Z,100876
2015-08-18T14:44:08.730Z,100876
2015-08-18T14:44:19.183Z,100885
2015-08-18T14:44:29.638Z,100876
2015-08-18T14:44:40.747Z,100873
2015-08-18T14:44:51.247Z,100871
2015-08-18T14:45:01.747Z,100891
2015-08-18T14:45:12.169Z,100879
2015-08-18T14:45:23.294Z,100882
2015-08-18T14:45:33.796Z,100868
2015-08-18T14:45:44.234Z,100885
2015-08-18T14:45:54.687Z,100879
2015-08-18T14:46:05.124Z,100885
2015-08-18T14:46:15.593Z,100894
2015-08-18T14:46:26.063Z,100891
2015-08-18T14:46:36.532Z,100888
2015-08-18T14:46:47.000Z,100888
2015-08-18T14:46:57.454Z,100897
2015-08-18T14:47:07.891Z,100885
2015-08-18T14:47:18.360Z,100888
2015-08-18T14:47:28.815Z,100894
2015-08-18T14:47:39.268Z,100885
2015-08-18T14:47:50.159Z,100891
2015-08-18T14:48:00.612Z,100888
2015-08-18T14:48:11.096Z,100891
2015-08-18T14:48:21.502Z,100885
2015-08-18T14:48:31.974Z,100888
2015-08-18T14:48:42.459Z,100882
2015-08-18T14:48:53.521Z,100882
2015-08-18T14:49:03.990Z,100888
2015-08-18T14:49:14.490Z,100885
2015-08-18T14:49:24.990Z,100888
2015-08-18T14:49:35.429Z,100894
2015-08-18T14:49:46.507Z,100888
2015-08-18T14:49:56.945Z,100891
2015-08-18T14:50:07.398Z,100882
2015-08-18T14:50:17.851Z,100885
2015-08-18T14:50:28.290Z,100888
2015-08-18T14:50:38.743Z,100888
2015-08-18T14:50:49.196Z,100879
2015-08-18T14:50:59.696Z,100885
2015-08-18T14:51:10.133Z,100888
2015-08-18T14:51:20.571Z,100874
2015-08-18T14:51:31.011Z,100888
2015-08-18T14:51:41.449Z,100894
2015-08-18T14:51:51.933Z,100891
2015-08-18T14:52:02.371Z,100888
2015-08-18T14:52:12.808Z,100885
2015-08-18T14:52:23.230Z,100894
2015-08-18T14:52:34.326Z,100885
2015-08-18T14:52:44.795Z,100894
2015-08-18T14:52:55.248Z,100888
2015-08-18T14:53:05.701Z,100888
2015-08-18T14:53:16.201Z,100879
2015-08-18T14:53:26.701Z,100885
2015-08-18T14:53:37.202Z,100882
2015-08-18T14:53:47.671Z,100888
2015-08-18T14:53:58.139Z,100891
2015-08-18T14:54:08.577Z,100882
2015-08-18T14:54:19.014Z,100891
2015-08-18T14:55:21.846Z,100879
2015-08-18T14:55:32.284Z,100888
2015-08-18T14:55:42.800Z,100882
2015-08-18T14:55:53.268Z,100885
2015-08-18T14:56:03.753Z,100885
2015-08-18T14:56:14.190Z,100882
2015-08-18T14:56:24.612Z,100879
2015-08-18T14:56:35.475Z,100879
2015-08-18T14:56:45.990Z,100888
2015-08-18T14:56:56.459Z,100879
2015-08-18T14:57:06.928Z,100888
2015-08-18T14:57:17.412Z,100876
2015-08-18T14:57:27.881Z,100882
2015-08-18T14:57:38.336Z,100882
2015-08-18T14:57:48.820Z,100876
2015-08-18T14:57:59.320Z,100882
2015-08-18T14:58:09.836Z,100882
2015-08-18T14:58:20.383Z,100885
2015-08-18T14:58:31.617Z,100888
2015-08-18T14:58:42.244Z,100894
2015-08-18T14:58:53.369Z,100885
2015-08-18T14:59:03.791Z,100885
2015-08-18T14:59:14.244Z,100874
2015-08-18T14:59:24.682Z,100882
2015-08-18T14:59:35.120Z,100891